createdAt,value
2022-09-03T00:01:07.756Z,0.80
2022-09-03T00:03:41.521Z,0.85
2022-09-03T00:06:17.524Z,0.90
2022-09-03T00:08:49.447Z,0.95
2022-09-03T00:11:20.843Z,0.75
2022-09-03T00:13:56.531Z,0.70
2022-09-03T00:16:27.756Z,0.80
2022-09-03T00:19:00.703Z,0.90
2022-09-03T00:21:39.042Z,1.17
2022-09-03T00:24:14.033Z,0.88
2022-09-03T00:26:46.268Z,1.13
2022-09-03T00:29:17.653Z,0.90
2022-09-03T00:31:49.061Z,0.95
2022-09-03T00:34:23.105Z,0.60
2022-09-03T00:36:50.808Z,0.80
2022-09-03T00:39:21.325Z,1.33
2022-09-03T00:42:07.833Z,1.05
2022-09-03T00:44:48.274Z,0.70
2022-09-03T00:47:25.594Z,1.10
2022-09-03T00:50:04.154Z,0.90
2022-09-03T00:52:46.029Z,1.10
2022-09-03T00:55:23.426Z,0.90
2022-09-03T00:58:04.130Z,0.80
2022-09-03T01:00:31.745Z,1.13
2022-09-03T01:03:08.656Z,0.90
2022-09-03T01:05:44.296Z,0.77
2022-09-03T01:08:32.213Z,0.80
2022-09-03T01:11:10.541Z,0.80
2022-09-03T01:13:44.718Z,1.00
2022-09-03T01:16:22.315Z,1.17
2022-09-03T01:18:55.871Z,1.23
2022-09-03T01:21:55.312Z,1.20
2022-09-03T01:24:36.388Z,1.00
2022-09-03T01:27:20.608Z,0.85
2022-09-03T01:29:58.397Z,1.13
2022-09-03T01:32:34.495Z,1.10
2022-09-03T01:35:09.851Z,1.20
2022-09-03T01:37:47.787Z,1.10
2022-09-03T01:40:21.015Z,0.82
2022-09-03T01:43:00.189Z,1.02
2022-09-03T01:45:51.233Z,1.05
2022-09-03T01:48:33.718Z,1.23
2022-09-03T01:51:11.106Z,1.42
2022-09-03T01:54:21.719Z,1.17
2022-09-03T01:57:12.867Z,1.20
2022-09-03T02:00:02.656Z,1.30
2022-09-03T02:02:32.699Z,1.05
2022-09-03T02:05:02.758Z,1.20
2022-09-03T02:07:34.820Z,1.38
2022-09-03T02:10:04.190Z,1.35
2022-09-03T02:12:34.927Z,1.00
2022-09-03T02:15:07.101Z,1.25
2022-09-03T02:17:37.302Z,1.45
2022-09-03T02:20:10.228Z,1.25
2022-09-03T02:22:37.870Z,1.00
2022-09-03T02:25:06.180Z,1.25
2022-09-03T02:27:33.818Z,1.17
2022-09-03T02:30:01.472Z,1.20
2022-09-03T02:32:29.251Z,0.93
2022-09-03T02:34:58.841Z,1.13
2022-09-03T02:37:26.919Z,1.20
2022-09-03T02:39:54.574Z,1.33
2022-09-03T02:42:22.317Z,1.42
2022-09-03T02:44:53.624Z,1.15
2022-09-03T02:47:21.846Z,1.30
2022-09-03T02:49:49.670Z,1.10
2022-09-03T02:52:18.655Z,1.10
2022-09-03T02:54:46.234Z,1.35
2022-09-03T02:57:16.248Z,1.08
2022-09-03T02:59:47.613Z,1.50
2022-09-03T03:02:15.397Z,1.00
2022-09-03T03:04:43.096Z,1.15
2022-09-03T03:07:10.707Z,1.10
2022-09-03T03:09:39.757Z,1.42
2022-09-03T03:12:08.791Z,1.00
2022-09-03T03:14:37.511Z,1.30
2022-09-03T03:17:06.030Z,1.30
2022-09-03T03:19:33.707Z,1.27
2022-09-03T03:22:01.245Z,1.00
2022-09-03T03:24:28.740Z,1.27
2022-09-03T03:26:59.198Z,1.30
2022-09-03T03:29:27.416Z,1.25
2022-09-03T03:31:55.000Z,1.33
2022-09-03T03:34:22.806Z,1.40
2022-09-03T03:36:50.583Z,1.42
2022-09-03T03:39:18.290Z,1.55
2022-09-03T03:41:45.921Z,1.35
2022-09-03T03:44:15.510Z,1.50
2022-09-03T03:46:43.163Z,1.23
2022-09-03T03:49:11.121Z,1.58
2022-09-03T03:51:40.695Z,1.30
2022-09-03T03:54:08.303Z,1.10
2022-09-03T03:56:36.494Z,1.45
2022-09-03T03:59:05.623Z,1.17
2022-09-03T04:01:34.611Z,1.50
2022-09-03T04:04:02.239Z,1.55
2022-09-03T04:06:30.028Z,1.38
2022-09-03T04:08:57.609Z,1.45
2022-09-03T04:11:26.002Z,1.05
2022-09-03T04:13:54.504Z,1.60
2022-09-03T04:16:23.798Z,1.15
2022-09-03T04:18:54.142Z,1.50
2022-09-03T04:21:23.934Z,1.52
2022-09-03T04:23:52.857Z,1.20
2022-09-03T04:26:22.128Z,1.17
2022-09-03T04:28:50.131Z,1.42
2022-09-03T04:31:19.965Z,1.33
2022-09-03T04:33:47.901Z,1.30
2022-09-03T04:36:18.829Z,1.30
2022-09-03T04:38:48.026Z,1.23
2022-09-03T04:41:17.780Z,1.20
2022-09-03T04:43:46.108Z,1.20
2022-09-03T04:46:20.210Z,1.17
2022-09-03T04:48:49.896Z,1.63
2022-09-03T04:51:21.061Z,1.20
2022-09-03T04:53:50.039Z,1.45
2022-09-03T04:56:19.597Z,1.38
2022-09-03T04:58:50.997Z,1.60
2022-09-03T05:01:20.618Z,1.83
2022-09-03T05:03:48.667Z,1.35
2022-09-03T05:06:17.194Z,1.70
2022-09-03T05:08:48.933Z,1.80
2022-09-03T05:11:18.808Z,2.08
2022-09-03T05:13:49.598Z,1.88
2022-09-03T05:16:18.993Z,1.65
2022-09-03T05:18:47.777Z,1.60
2022-09-03T05:21:16.973Z,1.55
2022-09-03T05:23:47.702Z,1.50
2022-09-03T05:26:17.429Z,1.35
2022-09-03T05:28:46.212Z,1.55
2022-09-03T05:31:15.715Z,1.88
2022-09-03T05:33:45.426Z,1.70
2022-09-03T05:36:14.592Z,1.70
2022-09-03T05:38:42.110Z,1.38
2022-09-03T05:41:13.000Z,1.67
2022-09-03T05:43:41.187Z,1.52
2022-09-03T05:46:10.286Z,1.70
2022-09-03T05:48:39.643Z,1.52
2022-09-03T05:51:09.339Z,1.38
2022-09-03T05:53:38.812Z,1.80
2022-09-03T05:56:10.858Z,2.03
2022-09-03T05:58:43.544Z,1.92
2022-09-03T06:01:13.132Z,1.55
2022-09-03T06:03:40.971Z,1.73
2022-09-03T06:06:09.087Z,1.70
2022-09-03T06:08:38.626Z,1.40
2022-09-03T06:11:07.007Z,1.70
2022-09-03T06:13:35.745Z,1.67
2022-09-03T06:16:07.143Z,1.75
2022-09-03T06:18:34.835Z,1.48
2022-09-03T06:21:04.151Z,2.30
2022-09-03T06:23:33.323Z,1.90
2022-09-03T06:26:05.277Z,1.90
2022-09-03T06:28:34.365Z,2.15
2022-09-03T06:31:03.029Z,1.70
2022-09-03T06:33:33.407Z,2.30
2022-09-03T06:36:04.614Z,1.63
2022-09-03T06:38:37.227Z,1.85
2022-09-03T06:41:07.692Z,2.08
2022-09-03T06:43:37.061Z,2.20
2022-09-03T06:46:06.746Z,1.90
2022-09-03T06:48:37.254Z,1.90
2022-09-03T06:51:07.206Z,1.70
2022-09-03T06:53:37.014Z,2.08
2022-09-03T06:56:07.638Z,1.58
2022-09-03T06:58:38.031Z,2.13
2022-09-03T07:01:07.807Z,1.77
2022-09-03T07:03:37.717Z,2.20
2022-09-03T07:06:07.186Z,1.88
2022-09-03T07:08:35.581Z,1.83
2022-09-03T07:11:06.124Z,2.38
2022-09-03T07:13:34.501Z,1.88
2022-09-03T07:16:03.211Z,1.98
2022-09-03T07:18:31.047Z,2.42
2022-09-03T07:21:01.587Z,2.03
2022-09-03T07:23:30.296Z,2.22
2022-09-03T07:25:59.169Z,3.15
2022-09-03T07:28:28.281Z,2.63
2022-09-03T07:31:01.532Z,3.30
2022-09-03T07:33:33.663Z,2.95
2022-09-03T07:36:08.335Z,3.20
2022-09-03T07:38:37.018Z,2.78
2022-09-03T07:41:06.736Z,3.15
2022-09-03T07:43:36.485Z,2.78
2022-09-03T07:46:04.429Z,3.40
2022-09-03T07:48:36.709Z,2.47
2022-09-03T07:51:06.537Z,3.00
2022-09-03T07:53:34.981Z,3.33
2022-09-03T07:56:03.663Z,2.30
2022-09-03T07:58:31.822Z,2.92
2022-09-03T08:01:00.362Z,2.50
2022-09-03T08:03:28.602Z,2.83
2022-09-03T08:06:01.680Z,2.92
2022-09-03T08:08:35.515Z,2.63
2022-09-03T08:11:11.136Z,2.95
2022-09-03T08:13:40.838Z,2.75
2022-09-03T08:16:09.614Z,2.80
2022-09-03T08:18:39.091Z,3.58
2022-09-03T08:21:08.492Z,2.90
2022-09-03T08:23:39.653Z,3.00
2022-09-03T08:26:07.774Z,2.78
2022-09-03T08:28:36.196Z,2.72
2022-09-03T08:31:08.408Z,2.25
2022-09-03T08:33:39.096Z,2.65
2022-09-03T08:36:08.660Z,2.70
2022-09-03T08:38:38.261Z,2.40
2022-09-03T08:41:11.518Z,2.58
2022-09-03T08:43:56.974Z,2.85
2022-09-03T08:46:33.137Z,2.45
2022-09-03T08:49:01.566Z,2.75
2022-09-03T08:51:29.113Z,2.40
2022-09-03T08:53:58.865Z,2.25
2022-09-03T08:56:31.785Z,2.33
2022-09-03T08:59:01.817Z,2.95
2022-09-03T09:01:42.783Z,2.75
2022-09-03T09:04:25.367Z,2.13
2022-09-03T09:09:31.922Z,2.33
2022-09-03T09:12:11.956Z,2.28
2022-09-03T09:14:53.194Z,2.33
2022-09-03T09:17:32.753Z,2.30
2022-09-03T09:20:07.884Z,2.10
2022-09-03T09:22:39.549Z,2.35
2022-09-03T09:25:14.325Z,2.20
2022-09-03T09:27:51.807Z,1.98
2022-09-03T09:30:20.541Z,1.85
2022-09-03T09:32:48.312Z,2.22
2022-09-03T09:35:18.045Z,2.50
2022-09-03T09:37:50.962Z,2.05
2022-09-03T09:40:35.668Z,2.47
2022-09-03T09:43:14.089Z,2.28
2022-09-03T09:45:43.894Z,2.30
2022-09-03T09:48:19.987Z,2.53
2022-09-03T09:50:47.687Z,1.92
2022-09-03T09:53:18.561Z,2.10
2022-09-03T09:55:51.537Z,1.95
2022-09-03T09:58:23.598Z,1.67
2022-09-03T10:01:00.148Z,1.73
2022-09-03T10:03:29.948Z,2.00
2022-09-03T10:06:26.715Z,2.30
2022-09-03T10:09:06.309Z,1.98
2022-09-03T10:11:38.627Z,1.90
2022-09-03T10:14:14.972Z,2.25
2022-09-03T10:16:48.964Z,2.10
2022-09-03T10:19:21.940Z,1.98
2022-09-03T10:21:58.422Z,1.40
2022-09-03T10:24:48.712Z,1.95
2022-09-03T10:27:18.697Z,1.80
2022-09-03T10:29:47.746Z,2.00
2022-09-03T10:32:29.102Z,1.85
2022-09-03T10:35:20.541Z,2.08
2022-09-03T10:37:56.537Z,1.88
2022-09-03T10:40:33.259Z,1.90
2022-09-03T10:43:17.086Z,1.88
2022-09-03T10:45:57.045Z,1.77
2022-09-03T10:48:51.732Z,1.85
2022-09-03T10:51:25.605Z,1.85
2022-09-03T10:54:11.828Z,1.80
2022-09-03T10:56:47.418Z,1.73
2022-09-03T10:59:33.926Z,1.20
2022-09-03T11:02:23.110Z,1.60
2022-09-03T11:04:57.820Z,1.67
2022-09-03T11:07:31.349Z,1.63
2022-09-03T11:10:09.040Z,1.08
2022-09-03T11:12:43.896Z,1.00
2022-09-03T11:15:17.327Z,1.33
2022-09-03T11:17:51.852Z,1.30
2022-09-03T11:20:25.246Z,1.30
2022-09-03T11:22:56.498Z,1.30
2022-09-03T11:25:31.927Z,1.75
2022-09-03T11:28:12.593Z,1.52
2022-09-03T11:30:54.815Z,2.20
2022-09-03T11:36:01.053Z,1.35
2022-09-03T11:38:32.310Z,1.45
2022-09-03T11:41:13.533Z,1.50
2022-09-03T11:43:42.661Z,1.48
2022-09-03T11:46:14.292Z,1.42
2022-09-03T11:48:46.186Z,1.45
2022-09-03T11:51:30.887Z,1.52
2022-09-03T11:54:00.832Z,1.50
2022-09-03T11:56:57.846Z,1.55
2022-09-03T11:59:27.519Z,1.23
2022-09-03T12:02:01.875Z,1.48
2022-09-03T12:04:40.301Z,1.42
2022-09-03T12:07:26.443Z,1.45
2022-09-03T12:10:13.482Z,1.77
2022-09-03T12:13:16.827Z,1.38
2022-09-03T12:16:08.623Z,1.50
2022-09-03T12:18:38.759Z,1.30
2022-09-03T12:21:10.923Z,1.15
2022-09-03T12:23:44.731Z,1.30
2022-09-03T12:26:16.779Z,1.60
2022-09-03T12:31:25.635Z,1.50
2022-09-03T12:33:56.058Z,1.38
2022-09-03T12:36:27.413Z,1.52
2022-09-03T12:39:12.675Z,2.00
2022-09-03T12:41:57.271Z,1.13
2022-09-03T12:44:30.217Z,1.20
2022-09-03T12:50:07.360Z,1.40
2022-09-03T12:52:40.090Z,1.10
2022-09-03T12:55:27.492Z,1.48
2022-09-03T12:58:04.142Z,1.70
2022-09-03T13:00:34.994Z,1.52
2022-09-03T13:03:08.431Z,1.13
2022-09-03T13:05:43.164Z,1.67
2022-09-03T13:08:20.033Z,6.47
2022-09-03T13:10:53.434Z,3.38
2022-09-03T13:13:25.189Z,0.90
2022-09-03T13:16:27.974Z,0.40
2022-09-03T13:21:38.532Z,0.38
2022-09-03T13:24:35.402Z,0.65
2022-09-03T13:27:33.672Z,0.82
2022-09-03T13:30:12.234Z,0.40
2022-09-03T13:32:57.463Z,0.50
2022-09-03T13:35:32.510Z,0.47
2022-09-03T13:38:10.201Z,0.73
2022-09-03T13:40:47.947Z,1.00
2022-09-03T13:43:26.068Z,1.33
2022-09-03T13:45:58.652Z,0.80
2022-09-03T13:48:50.420Z,0.98
2022-09-03T13:51:23.619Z,0.80
2022-09-03T13:54:04.535Z,0.98
2022-09-03T13:56:45.591Z,0.60
2022-09-03T13:59:20.980Z,0.68
2022-09-03T14:02:08.354Z,0.40
2022-09-03T14:04:50.222Z,0.57
2022-09-03T14:07:24.391Z,0.50
2022-09-03T14:10:02.860Z,0.45
2022-09-03T14:12:44.251Z,0.30
2022-09-03T14:15:19.664Z,0.40
2022-09-03T14:17:53.819Z,0.57
2022-09-03T14:20:24.691Z,0.82
2022-09-03T14:22:57.437Z,1.02
2022-09-03T14:25:27.081Z,1.00
2022-09-03T14:27:57.209Z,0.77
2022-09-03T14:30:40.537Z,1.50
2022-09-03T14:33:20.463Z,0.88
2022-09-03T14:36:03.769Z,0.73
2022-09-03T14:39:13.744Z,0.88
2022-09-03T14:42:16.335Z,0.52
2022-09-03T14:45:03.096Z,0.60
2022-09-03T14:47:44.507Z,0.60
2022-09-03T14:50:29.250Z,0.68
2022-09-03T14:53:14.913Z,0.80
2022-09-03T14:56:11.813Z,0.60
2022-09-03T14:59:00.793Z,0.50
2022-09-03T15:01:38.847Z,0.50
2022-09-03T15:04:47.857Z,0.60
2022-09-03T15:07:33.228Z,0.65
2022-09-03T15:10:08.444Z,0.70
2022-09-03T15:12:40.147Z,0.80
2022-09-03T15:15:14.165Z,2.20
2022-09-03T15:17:52.095Z,0.73
2022-09-03T15:20:31.275Z,0.75
2022-09-03T15:23:21.725Z,0.80
2022-09-03T15:26:11.036Z,1.08
2022-09-03T15:28:49.516Z,0.75
2022-09-03T15:31:24.779Z,0.60
2022-09-03T15:34:02.136Z,0.77
2022-09-03T15:36:37.196Z,0.55
2022-09-03T15:39:09.673Z,0.77
2022-09-03T15:41:45.543Z,1.48
2022-09-03T15:44:19.500Z,1.10
2022-09-03T15:46:56.702Z,1.15
2022-09-03T15:49:52.556Z,1.05
2022-09-03T15:52:31.647Z,2.05
2022-09-03T15:55:07.526Z,1.10
2022-09-03T15:57:43.838Z,0.90
2022-09-03T16:00:14.738Z,0.70
2022-09-03T16:02:55.570Z,1.08
2022-09-03T16:05:39.313Z,0.82
2022-09-03T16:08:13.665Z,0.98
2022-09-03T16:10:51.021Z,1.23
2022-09-03T16:13:31.913Z,1.00
2022-09-03T16:16:03.312Z,0.90
2022-09-03T16:18:35.696Z,1.00
2022-09-03T16:23:42.163Z,0.93
2022-09-03T16:26:14.797Z,1.17
2022-09-03T16:28:47.320Z,1.00
2022-09-03T16:31:24.132Z,0.95
2022-09-03T16:34:03.308Z,1.25
2022-09-03T16:36:44.520Z,1.33
2022-09-03T16:39:25.637Z,1.08
2022-09-03T16:42:01.732Z,1.05
2022-09-03T16:44:45.341Z,1.00
2022-09-03T16:47:23.050Z,0.70
2022-09-03T16:50:05.441Z,0.80
2022-09-03T16:52:42.916Z,0.90
2022-09-03T16:55:22.169Z,1.10
2022-09-03T16:58:01.657Z,0.82
2022-09-03T17:00:50.243Z,0.70
2022-09-03T17:03:42.444Z,0.90
2022-09-03T17:06:32.262Z,1.02
2022-09-03T17:09:16.657Z,1.05
2022-09-03T17:11:59.141Z,0.82
2022-09-03T17:14:48.530Z,0.90
2022-09-03T17:17:30.184Z,0.80
2022-09-03T17:20:06.520Z,1.00
2022-09-03T17:22:46.084Z,1.02
2022-09-03T17:25:27.556Z,1.02
2022-09-03T17:28:05.222Z,1.48
2022-09-03T17:30:43.409Z,1.45
2022-09-03T17:33:35.907Z,0.98
2022-09-03T17:36:09.911Z,1.00
2022-09-03T17:49:30.483Z,1.08
2022-09-03T17:52:04.667Z,1.38
2022-09-03T17:54:42.104Z,1.10
2022-09-03T17:57:19.590Z,1.33
2022-09-03T17:59:55.239Z,1.50
2022-09-03T18:02:32.977Z,0.98
2022-09-03T18:05:07.812Z,1.13
2022-09-03T18:07:48.400Z,0.90
2022-09-03T18:10:28.440Z,0.60
2022-09-03T18:13:06.066Z,0.88
2022-09-03T18:15:38.850Z,0.70
2022-09-03T18:18:11.854Z,0.85
2022-09-03T18:21:22.373Z,0.88
2022-09-03T18:24:15.690Z,0.88
2022-09-03T18:27:07.862Z,0.75
2022-09-03T18:30:04.382Z,0.63
2022-09-03T18:35:34.816Z,0.50
2022-09-03T18:38:23.483Z,0.47
2022-09-03T18:41:13.488Z,0.80
2022-09-03T18:44:07.977Z,0.63
2022-09-03T18:50:19.879Z,1.48
2022-09-03T18:53:13.252Z,1.20
2022-09-03T18:56:12.433Z,2.22
2022-09-03T18:59:09.963Z,1.27
2022-09-03T19:01:57.754Z,1.40
2022-09-03T19:04:55.453Z,1.13
2022-09-03T19:07:48.475Z,0.70
2022-09-03T19:10:38.525Z,1.30
2022-09-03T19:13:43.662Z,0.98
2022-09-03T19:16:32.620Z,1.08
2022-09-03T19:19:39.631Z,1.50
2022-09-03T19:22:27.622Z,1.38
2022-09-03T19:25:20.565Z,1.42
2022-09-03T19:28:21.529Z,1.42
2022-09-03T19:31:19.821Z,1.38
2022-09-03T19:34:12.464Z,0.90
2022-09-03T19:37:02.773Z,1.27
2022-09-03T19:40:02.831Z,1.13
2022-09-03T19:43:02.053Z,1.25
2022-09-03T19:45:59.955Z,0.70
2022-09-03T19:48:59.942Z,0.60
2022-09-03T19:51:51.012Z,0.95
2022-09-03T19:54:41.535Z,0.55
2022-09-03T19:57:30.062Z,0.77
2022-09-03T20:00:16.892Z,1.17
2022-09-03T20:03:07.471Z,1.05
2022-09-03T20:05:56.162Z,1.30
2022-09-03T20:08:43.571Z,1.05
2022-09-03T20:11:17.805Z,1.10
2022-09-03T20:14:03.122Z,0.95
2022-09-03T20:16:35.927Z,0.85
2022-09-03T20:19:13.002Z,0.60
2022-09-03T20:21:49.371Z,1.02
2022-09-03T20:24:28.458Z,1.00
2022-09-03T20:27:05.028Z,1.10
2022-09-03T20:29:49.218Z,1.50
2022-09-03T20:32:30.096Z,1.30
2022-09-03T20:35:06.906Z,1.15
2022-09-03T20:37:42.576Z,1.35
2022-09-03T20:40:19.331Z,1.27
2022-09-03T20:43:07.550Z,1.20
2022-09-03T20:45:53.713Z,1.13
2022-09-03T20:48:25.270Z,0.93
2022-09-03T20:51:01.599Z,1.10
2022-09-03T20:54:02.181Z,1.20
2022-09-03T20:56:38.735Z,1.35
2022-09-03T20:59:16.787Z,1.27
2022-09-03T21:01:56.295Z,1.02
2022-09-03T21:04:40.375Z,1.45
2022-09-03T21:07:18.559Z,1.15
2022-09-03T21:09:57.003Z,1.00
2022-09-03T21:12:33.979Z,0.88
2022-09-03T21:15:11.745Z,1.02
2022-09-03T21:17:51.560Z,0.90
2022-09-03T21:20:29.774Z,1.35
2022-09-03T21:23:13.293Z,0.90
2022-09-03T21:25:43.940Z,1.40
2022-09-03T21:28:17.615Z,1.30
2022-09-03T21:30:52.384Z,0.82
2022-09-03T21:33:24.538Z,1.00
2022-09-03T21:35:55.446Z,0.77
2022-09-03T21:38:26.584Z,0.82
2022-09-03T21:40:59.960Z,0.68
2022-09-03T21:43:34.556Z,0.70
2022-09-03T21:46:07.505Z,0.63
2022-09-03T21:48:39.120Z,0.90
2022-09-03T21:51:14.522Z,0.70
2022-09-03T21:53:47.320Z,0.85
2022-09-03T21:56:45.291Z,0.70
2022-09-03T21:59:28.466Z,0.90
2022-09-03T22:02:04.780Z,0.50
2022-09-03T22:04:32.795Z,0.70
2022-09-03T22:07:11.043Z,0.52
2022-09-03T22:09:46.472Z,0.82
2022-09-03T22:12:21.343Z,0.80
2022-09-03T22:14:55.621Z,0.50
2022-09-03T22:17:30.545Z,0.82
2022-09-03T22:19:58.300Z,1.27
2022-09-03T22:22:35.204Z,0.52
2022-09-03T22:25:07.005Z,0.73
2022-09-03T22:27:44.642Z,0.70
2022-09-03T22:30:20.051Z,0.80
2022-09-03T22:33:01.225Z,0.70
2022-09-03T22:35:49.626Z,0.80
2022-09-03T22:38:49.053Z,0.80
2022-09-03T22:41:30.877Z,0.70
2022-09-03T22:44:05.981Z,0.70
2022-09-03T22:46:47.249Z,0.82
2022-09-03T22:49:32.770Z,0.70
2022-09-03T22:52:13.248Z,0.68
2022-09-03T22:54:54.417Z,0.75
2022-09-03T22:57:25.335Z,0.57
2022-09-03T23:00:00.657Z,0.68
2022-09-03T23:02:32.298Z,0.60
2022-09-03T23:05:06.194Z,0.70
2022-09-03T23:07:46.104Z,0.82
2022-09-03T23:10:22.605Z,0.88
2022-09-03T23:13:05.351Z,0.60
2022-09-03T23:15:35.201Z,0.93
2022-09-03T23:18:09.064Z,0.73
2022-09-03T23:20:40.124Z,0.90
2022-09-03T23:23:16.222Z,0.80
2022-09-03T23:25:48.754Z,0.60
2022-09-03T23:28:24.189Z,0.98
2022-09-03T23:30:51.848Z,0.75
2022-09-03T23:33:20.665Z,0.55
2022-09-03T23:35:54.719Z,1.38
2022-09-03T23:38:31.185Z,0.80
2022-09-03T23:41:03.254Z,1.10
2022-09-03T23:43:56.824Z,1.20
2022-09-03T23:46:29.097Z,0.80
2022-09-03T23:49:23.647Z,0.82
2022-09-03T23:52:08.789Z,0.90
2022-09-03T23:54:39.896Z,1.00
2022-09-03T23:57:24.526Z,1.10
